sensor_id;sensor_type;location;lat;lon;timestamp;temperature;humidity
16635;DHT22;8431;52.458;9.998;2023-02-22T00:01:34;8.00;99.90
16635;DHT22;8431;52.458;9.998;2023-02-22T00:04:11;8.00;99.90
16635;DHT22;8431;52.458;9.998;2023-02-22T00:06:40;8.00;99.90
16635;DHT22;8431;52.458;9.998;2023-02-22T00:09:07;7.90;99.90
16635;DHT22;8431;52.458;9.998;2023-02-22T00:11:34;7.90;99.90
16635;DHT22;8431;52.458;9.998;2023-02-22T00:14:03;7.90;99.90
16635;DHT22;8431;52.458;9.998;2023-02-22T00:16:30;8.00;99.90
16635;DHT22;8431;52.458;9.998;2023-02-22T00:19:00;8.00;99.90
16635;DHT22;8431;52.458;9.998;2023-02-22T00:21:28;7.90;99.90
16635;DHT22;8431;52.458;9.998;2023-02-22T00:23:55;7.90;99.90
16635;DHT22;8431;52.458;9.998;2023-02-22T00:26:22;7.90;99.90
16635;DHT22;8431;52.458;9.998;2023-02-22T00:28:51;7.80;99.90
16635;DHT22;8431;52.458;9.998;2023-02-22T00:31:19;7.80;99.90
16635;DHT22;8431;52.458;9.998;2023-02-22T00:33:46;7.80;99.90
16635;DHT22;8431;52.458;9.998;2023-02-22T00:36:15;7.90;99.90
16635;DHT22;8431;52.458;9.998;2023-02-22T00:38:42;7.80;99.90
16635;DHT22;8431;52.458;9.998;2023-02-22T00:41:10;7.80;99.90
16635;DHT22;8431;52.458;9.998;2023-02-22T00:43:37;7.80;99.90
16635;DHT22;8431;52.458;9.998;2023-02-22T00:46:04;7.90;99.90
16635;DHT22;8431;52.458;9.998;2023-02-22T00:48:31;7.90;99.90
16635;DHT22;8431;52.458;9.998;2023-02-22T00:50:58;7.90;99.90
16635;DHT22;8431;52.458;9.998;2023-02-22T00:53:27;7.90;99.90
16635;DHT22;8431;52.458;9.998;2023-02-22T00:55:54;7.90;99.90
16635;DHT22;8431;52.458;9.998;2023-02-22T00:58:23;7.80;99.90
16635;DHT22;8431;52.458;9.998;2023-02-22T01:00:51;7.80;99.90
16635;DHT22;8431;52.458;9.998;2023-02-22T01:03:19;7.80;99.90
16635;DHT22;8431;52.458;9.998;2023-02-22T01:05:46;7.80;99.90
16635;DHT22;8431;52.458;9.998;2023-02-22T01:08:15;7.80;99.90
16635;DHT22;8431;52.458;9.998;2023-02-22T01:10:44;7.80;99.90
16635;DHT22;8431;52.458;9.998;2023-02-22T01:13:12;7.70;99.90
16635;DHT22;8431;52.458;9.998;2023-02-22T01:15:40;7.70;99.90
16635;DHT22;8431;52.458;9.998;2023-02-22T01:18:08;7.60;99.90
16635;DHT22;8431;52.458;9.998;2023-02-22T01:20:37;7.60;99.90
16635;DHT22;8431;52.458;9.998;2023-02-22T01:23:06;7.60;99.90
16635;DHT22;8431;52.458;9.998;2023-02-22T01:25:35;7.50;99.90
16635;DHT22;8431;52.458;9.998;2023-02-22T01:28:05;7.50;99.90
16635;DHT22;8431;52.458;9.998;2023-02-22T01:30:35;7.50;99.90
16635;DHT22;8431;52.458;9.998;2023-02-22T01:33:03;7.40;99.90
16635;DHT22;8431;52.458;9.998;2023-02-22T01:35:33;7.40;99.90
16635;DHT22;8431;52.458;9.998;2023-02-22T01:38:01;7.40;99.90
16635;DHT22;8431;52.458;9.998;2023-02-22T01:40:31;7.40;99.90
16635;DHT22;8431;52.458;9.998;2023-02-22T01:42:59;7.40;99.90
16635;DHT22;8431;52.458;9.998;2023-02-22T01:45:51;7.40;99.90
16635;DHT22;8431;52.458;9.998;2023-02-22T01:48:24;7.30;99.90
16635;DHT22;8431;52.458;9.998;2023-02-22T01:50:56;7.20;99.90
16635;DHT22;8431;52.458;9.998;2023-02-22T01:53:28;7.10;99.90
16635;DHT22;8431;52.458;9.998;2023-02-22T01:55:57;7.10;99.90
16635;DHT22;8431;52.458;9.998;2023-02-22T01:58:25;7.00;99.90
16635;DHT22;8431;52.458;9.998;2023-02-22T02:00:55;7.00;99.90
16635;DHT22;8431;52.458;9.998;2023-02-22T02:03:29;7.00;99.90
16635;DHT22;8431;52.458;9.998;2023-02-22T02:06:03;6.90;99.90
16635;DHT22;8431;52.458;9.998;2023-02-22T02:08:35;6.90;99.90
16635;DHT22;8431;52.458;9.998;2023-02-22T02:11:04;6.90;99.90
16635;DHT22;8431;52.458;9.998;2023-02-22T02:13:33;6.90;99.90
16635;DHT22;8431;52.458;9.998;2023-02-22T02:16:01;6.90;99.90
16635;DHT22;8431;52.458;9.998;2023-02-22T02:18:29;6.90;99.90
16635;DHT22;8431;52.458;9.998;2023-02-22T02:21:24;6.80;99.90
16635;DHT22;8431;52.458;9.998;2023-02-22T02:24:32;6.80;99.90
16635;DHT22;8431;52.458;9.998;2023-02-22T02:27:15;6.80;99.90
16635;DHT22;8431;52.458;9.998;2023-02-22T02:32:52;6.60;99.90
16635;DHT22;8431;52.458;9.998;2023-02-22T02:35:33;6.70;99.90
16635;DHT22;8431;52.458;9.998;2023-02-22T02:38:09;6.70;99.90
16635;DHT22;8431;52.458;9.998;2023-02-22T02:40:42;6.70;99.90
16635;DHT22;8431;52.458;9.998;2023-02-22T02:43:16;6.70;99.90
16635;DHT22;8431;52.458;9.998;2023-02-22T02:45:48;6.70;99.90
16635;DHT22;8431;52.458;9.998;2023-02-22T02:48:22;6.70;99.90
16635;DHT22;8431;52.458;9.998;2023-02-22T02:50:51;6.70;99.90
16635;DHT22;8431;52.458;9.998;2023-02-22T02:53:24;6.70;99.90
16635;DHT22;8431;52.458;9.998;2023-02-22T02:55:57;6.70;99.90
16635;DHT22;8431;52.458;9.998;2023-02-22T02:58:25;6.70;99.90
16635;DHT22;8431;52.458;9.998;2023-02-22T03:00:54;6.60;99.90
16635;DHT22;8431;52.458;9.998;2023-02-22T03:03:44;6.60;99.90
16635;DHT22;8431;52.458;9.998;2023-02-22T03:06:31;6.60;99.90
16635;DHT22;8431;52.458;9.998;2023-02-22T03:09:06;6.60;99.90
16635;DHT22;8431;52.458;9.998;2023-02-22T03:11:44;6.50;99.90
16635;DHT22;8431;52.458;9.998;2023-02-22T03:14:21;6.50;99.90
16635;DHT22;8431;52.458;9.998;2023-02-22T03:16:51;6.50;99.90
16635;DHT22;8431;52.458;9.998;2023-02-22T03:19:27;6.50;99.90
16635;DHT22;8431;52.458;9.998;2023-02-22T03:22:02;6.50;99.90
16635;DHT22;8431;52.458;9.998;2023-02-22T03:24:38;6.50;99.90
16635;DHT22;8431;52.458;9.998;2023-02-22T03:27:15;6.40;99.90
16635;DHT22;8431;52.458;9.998;2023-02-22T03:29:48;6.40;99.90
16635;DHT22;8431;52.458;9.998;2023-02-22T03:32:21;6.30;99.90
16635;DHT22;8431;52.458;9.998;2023-02-22T03:34:55;6.30;99.90
16635;DHT22;8431;52.458;9.998;2023-02-22T03:37:28;6.20;99.90
16635;DHT22;8431;52.458;9.998;2023-02-22T03:39:57;6.20;99.90
16635;DHT22;8431;52.458;9.998;2023-02-22T03:42:28;6.10;99.90
16635;DHT22;8431;52.458;9.998;2023-02-22T03:44:59;6.00;99.90
16635;DHT22;8431;52.458;9.998;2023-02-22T03:47:31;6.00;99.90
16635;DHT22;8431;52.458;9.998;2023-02-22T03:50:06;5.90;99.90
16635;DHT22;8431;52.458;9.998;2023-02-22T03:52:35;5.80;99.90
16635;DHT22;8431;52.458;9.998;2023-02-22T03:55:04;5.70;99.90
16635;DHT22;8431;52.458;9.998;2023-02-22T03:57:45;5.60;99.90
16635;DHT22;8431;52.458;9.998;2023-02-22T04:00:18;5.50;99.90
16635;DHT22;8431;52.458;9.998;2023-02-22T04:02:47;5.40;99.90
16635;DHT22;8431;52.458;9.998;2023-02-22T04:05:16;5.40;99.90
16635;DHT22;8431;52.458;9.998;2023-02-22T04:07:44;5.40;99.90
16635;DHT22;8431;52.458;9.998;2023-02-22T04:10:11;5.50;99.90
16635;DHT22;8431;52.458;9.998;2023-02-22T04:12:39;5.50;99.90
16635;DHT22;8431;52.458;9.998;2023-02-22T04:15:13;5.60;99.90
16635;DHT22;8431;52.458;9.998;2023-02-22T04:17:41;5.70;99.90
16635;DHT22;8431;52.458;9.998;2023-02-22T04:20:09;5.70;99.90
16635;DHT22;8431;52.458;9.998;2023-02-22T04:22:40;5.70;99.90
16635;DHT22;8431;52.458;9.998;2023-02-22T04:25:07;5.60;99.90
16635;DHT22;8431;52.458;9.998;2023-02-22T04:27:37;5.60;99.90
16635;DHT22;8431;52.458;9.998;2023-02-22T04:30:05;5.40;99.90
16635;DHT22;8431;52.458;9.998;2023-02-22T04:32:32;5.30;99.90
16635;DHT22;8431;52.458;9.998;2023-02-22T04:35:01;5.30;99.90
16635;DHT22;8431;52.458;9.998;2023-02-22T04:37:28;5.20;99.90
16635;DHT22;8431;52.458;9.998;2023-02-22T04:40:00;5.10;99.90
16635;DHT22;8431;52.458;9.998;2023-02-22T04:42:28;5.00;99.90
16635;DHT22;8431;52.458;9.998;2023-02-22T04:44:55;4.90;99.90
16635;DHT22;8431;52.458;9.998;2023-02-22T04:47:22;4.90;99.90
16635;DHT22;8431;52.458;9.998;2023-02-22T04:49:49;4.90;99.90
16635;DHT22;8431;52.458;9.998;2023-02-22T04:52:16;4.90;99.90
16635;DHT22;8431;52.458;9.998;2023-02-22T04:54:44;4.90;99.90
16635;DHT22;8431;52.458;9.998;2023-02-22T04:57:12;4.80;99.90
16635;DHT22;8431;52.458;9.998;2023-02-22T04:59:39;4.80;99.90
16635;DHT22;8431;52.458;9.998;2023-02-22T05:02:07;4.80;99.90
16635;DHT22;8431;52.458;9.998;2023-02-22T05:04:35;4.80;99.90
16635;DHT22;8431;52.458;9.998;2023-02-22T05:07:03;4.70;99.90
16635;DHT22;8431;52.458;9.998;2023-02-22T05:09:30;4.70;99.90
16635;DHT22;8431;52.458;9.998;2023-02-22T05:11:57;4.70;99.90
16635;DHT22;8431;52.458;9.998;2023-02-22T05:14:25;4.80;99.90
16635;DHT22;8431;52.458;9.998;2023-02-22T05:16:53;4.80;99.90
16635;DHT22;8431;52.458;9.998;2023-02-22T05:19:20;4.80;99.90
16635;DHT22;8431;52.458;9.998;2023-02-22T05:21:48;4.70;99.90
16635;DHT22;8431;52.458;9.998;2023-02-22T05:24:15;4.70;99.90
16635;DHT22;8431;52.458;9.998;2023-02-22T05:26:42;4.70;99.90
16635;DHT22;8431;52.458;9.998;2023-02-22T05:29:10;4.70;99.90
16635;DHT22;8431;52.458;9.998;2023-02-22T05:31:38;4.70;99.90
16635;DHT22;8431;52.458;9.998;2023-02-22T05:34:06;4.70;99.90
16635;DHT22;8431;52.458;9.998;2023-02-22T05:36:33;4.80;99.90
16635;DHT22;8431;52.458;9.998;2023-02-22T05:39:01;4.90;99.90
16635;DHT22;8431;52.458;9.998;2023-02-22T05:41:28;5.00;99.90
16635;DHT22;8431;52.458;9.998;2023-02-22T05:43:55;5.20;99.90
16635;DHT22;8431;52.458;9.998;2023-02-22T05:46:23;5.30;99.90
16635;DHT22;8431;52.458;9.998;2023-02-22T05:48:51;5.40;99.90
16635;DHT22;8431;52.458;9.998;2023-02-22T05:51:18;5.50;99.90
16635;DHT22;8431;52.458;9.998;2023-02-22T05:53:45;5.60;99.90
16635;DHT22;8431;52.458;9.998;2023-02-22T05:56:12;5.80;99.90
16635;DHT22;8431;52.458;9.998;2023-02-22T05:58:40;5.90;99.90
16635;DHT22;8431;52.458;9.998;2023-02-22T06:01:09;5.90;99.90
16635;DHT22;8431;52.458;9.998;2023-02-22T06:03:36;6.00;99.90
16635;DHT22;8431;52.458;9.998;2023-02-22T06:06:08;6.10;99.90
16635;DHT22;8431;52.458;9.998;2023-02-22T06:08:36;6.10;99.90
16635;DHT22;8431;52.458;9.998;2023-02-22T06:11:03;6.10;99.90
16635;DHT22;8431;52.458;9.998;2023-02-22T06:13:50;6.20;99.90
16635;DHT22;8431;52.458;9.998;2023-02-22T06:16:18;6.20;99.90
16635;DHT22;8431;52.458;9.998;2023-02-22T06:18:45;6.20;99.90
16635;DHT22;8431;52.458;9.998;2023-02-22T06:21:14;6.20;99.90
16635;DHT22;8431;52.458;9.998;2023-02-22T06:23:41;6.10;99.90
16635;DHT22;8431;52.458;9.998;2023-02-22T06:26:08;6.10;99.90
16635;DHT22;8431;52.458;9.998;2023-02-22T06:28:35;6.10;99.90
16635;DHT22;8431;52.458;9.998;2023-02-22T06:31:03;6.10;99.90
16635;DHT22;8431;52.458;9.998;2023-02-22T06:33:30;6.10;99.90
16635;DHT22;8431;52.458;9.998;2023-02-22T06:36:18;6.10;99.90
16635;DHT22;8431;52.458;9.998;2023-02-22T06:38:45;6.10;99.90
16635;DHT22;8431;52.458;9.998;2023-02-22T06:41:12;6.20;99.90
16635;DHT22;8431;52.458;9.998;2023-02-22T06:43:40;6.20;99.90
16635;DHT22;8431;52.458;9.998;2023-02-22T06:46:09;6.30;99.90
16635;DHT22;8431;52.458;9.998;2023-02-22T06:48:36;6.30;99.90
16635;DHT22;8431;52.458;9.998;2023-02-22T06:51:05;6.40;99.90
16635;DHT22;8431;52.458;9.998;2023-02-22T06:53:34;6.30;99.90
16635;DHT22;8431;52.458;9.998;2023-02-22T06:56:02;6.20;99.90
16635;DHT22;8431;52.458;9.998;2023-02-22T06:58:29;6.20;99.90
16635;DHT22;8431;52.458;9.998;2023-02-22T07:00:56;6.20;99.90
16635;DHT22;8431;52.458;9.998;2023-02-22T07:03:23;6.10;99.90
16635;DHT22;8431;52.458;9.998;2023-02-22T07:05:50;6.20;99.90
16635;DHT22;8431;52.458;9.998;2023-02-22T07:08:17;6.20;99.90
16635;DHT22;8431;52.458;9.998;2023-02-22T07:10:46;6.20;99.90
16635;DHT22;8431;52.458;9.998;2023-02-22T07:13:15;6.20;99.90
16635;DHT22;8431;52.458;9.998;2023-02-22T07:15:42;6.30;99.90
16635;DHT22;8431;52.458;9.998;2023-02-22T07:18:09;6.30;99.90
16635;DHT22;8431;52.458;9.998;2023-02-22T07:20:37;6.40;99.90
16635;DHT22;8431;52.458;9.998;2023-02-22T07:23:04;6.60;99.90
16635;DHT22;8431;52.458;9.998;2023-02-22T07:25:31;6.70;99.90
16635;DHT22;8431;52.458;9.998;2023-02-22T07:28:00;6.80;99.90
16635;DHT22;8431;52.458;9.998;2023-02-22T07:30:28;7.00;99.90
16635;DHT22;8431;52.458;9.998;2023-02-22T07:32:57;7.10;99.90
16635;DHT22;8431;52.458;9.998;2023-02-22T07:35:26;7.20;99.90
16635;DHT22;8431;52.458;9.998;2023-02-22T07:41:18;7.20;99.90
16635;DHT22;8431;52.458;9.998;2023-02-22T07:43:48;7.30;99.90
16635;DHT22;8431;52.458;9.998;2023-02-22T07:46:15;7.30;99.90
16635;DHT22;8431;52.458;9.998;2023-02-22T07:48:42;7.50;99.90
16635;DHT22;8431;52.458;9.998;2023-02-22T07:51:09;7.50;99.90
16635;DHT22;8431;52.458;9.998;2023-02-22T07:53:36;7.50;99.90
16635;DHT22;8431;52.458;9.998;2023-02-22T07:56:04;7.50;99.90
16635;DHT22;8431;52.458;9.998;2023-02-22T07:58:33;7.60;99.90
16635;DHT22;8431;52.458;9.998;2023-02-22T08:01:02;7.70;99.90
16635;DHT22;8431;52.458;9.998;2023-02-22T08:03:31;7.90;99.90
16635;DHT22;8431;52.458;9.998;2023-02-22T08:06:01;8.00;99.90
16635;DHT22;8431;52.458;9.998;2023-02-22T08:08:28;8.00;99.90
16635;DHT22;8431;52.458;9.998;2023-02-22T08:10:56;8.10;99.90
16635;DHT22;8431;52.458;9.998;2023-02-22T08:13:23;8.20;99.90
16635;DHT22;8431;52.458;9.998;2023-02-22T08:15:51;8.40;99.90
16635;DHT22;8431;52.458;9.998;2023-02-22T08:18:21;8.40;99.90
16635;DHT22;8431;52.458;9.998;2023-02-22T08:20:49;8.60;99.90
16635;DHT22;8431;52.458;9.998;2023-02-22T08:23:18;8.70;99.90
16635;DHT22;8431;52.458;9.998;2023-02-22T08:25:47;8.90;99.90
16635;DHT22;8431;52.458;9.998;2023-02-22T08:28:16;9.00;99.90
16635;DHT22;8431;52.458;9.998;2023-02-22T08:30:44;9.20;99.90
16635;DHT22;8431;52.458;9.998;2023-02-22T08:33:13;9.30;99.90
16635;DHT22;8431;52.458;9.998;2023-02-22T08:35:45;9.40;99.90
16635;DHT22;8431;52.458;9.998;2023-02-22T08:38:18;9.50;99.90
16635;DHT22;8431;52.458;9.998;2023-02-22T08:40:47;9.60;99.90
16635;DHT22;8431;52.458;9.998;2023-02-22T08:43:14;9.70;99.90
16635;DHT22;8431;52.458;9.998;2023-02-22T08:45:43;9.80;99.90
16635;DHT22;8431;52.458;9.998;2023-02-22T08:48:10;9.80;99.90
16635;DHT22;8431;52.458;9.998;2023-02-22T08:50:39;9.90;99.90
16635;DHT22;8431;52.458;9.998;2023-02-22T08:53:09;9.90;99.90
16635;DHT22;8431;52.458;9.998;2023-02-22T08:55:37;9.90;99.90
16635;DHT22;8431;52.458;9.998;2023-02-22T08:58:06;10.00;99.90
16635;DHT22;8431;52.458;9.998;2023-02-22T09:00:35;10.10;99.90
16635;DHT22;8431;52.458;9.998;2023-02-22T09:03:04;10.20;99.90
16635;DHT22;8431;52.458;9.998;2023-02-22T09:05:32;10.30;99.90
16635;DHT22;8431;52.458;9.998;2023-02-22T09:07:59;10.60;99.90
16635;DHT22;8431;52.458;9.998;2023-02-22T09:10:31;10.70;99.90
16635;DHT22;8431;52.458;9.998;2023-02-22T09:12:59;10.80;99.90
16635;DHT22;8431;52.458;9.998;2023-02-22T09:15:27;10.90;99.90
16635;DHT22;8431;52.458;9.998;2023-02-22T09:17:54;11.00;99.90
16635;DHT22;8431;52.458;9.998;2023-02-22T09:20:23;10.90;99.90
16635;DHT22;8431;52.458;9.998;2023-02-22T09:22:50;11.00;99.90
16635;DHT22;8431;52.458;9.998;2023-02-22T09:25:18;11.10;99.90
16635;DHT22;8431;52.458;9.998;2023-02-22T09:27:48;11.10;99.90
16635;DHT22;8431;52.458;9.998;2023-02-22T09:30:18;11.10;99.90
16635;DHT22;8431;52.458;9.998;2023-02-22T09:32:49;11.00;99.90
16635;DHT22;8431;52.458;9.998;2023-02-22T09:35:16;11.00;99.90
16635;DHT22;8431;52.458;9.998;2023-02-22T09:37:43;10.90;99.90
16635;DHT22;8431;52.458;9.998;2023-02-22T09:40:15;10.90;99.90
16635;DHT22;8431;52.458;9.998;2023-02-22T09:43:00;10.80;99.90
16635;DHT22;8431;52.458;9.998;2023-02-22T09:45:31;10.80;99.90
16635;DHT22;8431;52.458;9.998;2023-02-22T09:48:04;10.70;99.90
16635;DHT22;8431;52.458;9.998;2023-02-22T09:50:34;10.60;99.90
16635;DHT22;8431;52.458;9.998;2023-02-22T09:53:04;10.60;99.90
16635;DHT22;8431;52.458;9.998;2023-02-22T09:55:35;10.60;99.90
16635;DHT22;8431;52.458;9.998;2023-02-22T09:58:23;10.60;99.90
16635;DHT22;8431;52.458;9.998;2023-02-22T10:00:56;10.60;99.90
16635;DHT22;8431;52.458;9.998;2023-02-22T10:03:28;10.70;99.90
16635;DHT22;8431;52.458;9.998;2023-02-22T10:06:01;10.70;99.90
16635;DHT22;8431;52.458;9.998;2023-02-22T10:08:31;10.70;99.90
16635;DHT22;8431;52.458;9.998;2023-02-22T10:11:08;10.90;99.90
16635;DHT22;8431;52.458;9.998;2023-02-22T10:13:47;11.00;99.90
16635;DHT22;8431;52.458;9.998;2023-02-22T10:16:20;11.10;99.90
16635;DHT22;8431;52.458;9.998;2023-02-22T10:19:16;11.10;99.90
16635;DHT22;8431;52.458;9.998;2023-02-22T10:22:05;11.20;99.90
16635;DHT22;8431;52.458;9.998;2023-02-22T10:24:43;11.20;99.90
16635;DHT22;8431;52.458;9.998;2023-02-22T10:27:16;11.40;99.90
16635;DHT22;8431;52.458;9.998;2023-02-22T10:29:49;11.50;99.90
16635;DHT22;8431;52.458;9.998;2023-02-22T10:32:24;11.60;99.90
16635;DHT22;8431;52.458;9.998;2023-02-22T10:34:52;11.60;99.90
16635;DHT22;8431;52.458;9.998;2023-02-22T10:37:24;11.60;99.90
16635;DHT22;8431;52.458;9.998;2023-02-22T10:39:56;11.70;99.90
16635;DHT22;8431;52.458;9.998;2023-02-22T10:42:25;11.70;99.90
16635;DHT22;8431;52.458;9.998;2023-02-22T10:44:54;11.70;99.90
16635;DHT22;8431;52.458;9.998;2023-02-22T10:47:22;11.80;99.90
16635;DHT22;8431;52.458;9.998;2023-02-22T10:49:52;11.90;99.90
16635;DHT22;8431;52.458;9.998;2023-02-22T10:52:26;12.00;99.90
16635;DHT22;8431;52.458;9.998;2023-02-22T10:54:55;12.00;99.90
16635;DHT22;8431;52.458;9.998;2023-02-22T10:57:25;12.00;99.90
16635;DHT22;8431;52.458;9.998;2023-02-22T10:59:55;12.10;99.90
16635;DHT22;8431;52.458;9.998;2023-02-22T11:02:28;12.10;99.90
16635;DHT22;8431;52.458;9.998;2023-02-22T11:04:57;12.20;99.90
16635;DHT22;8431;52.458;9.998;2023-02-22T11:07:29;12.20;99.90
16635;DHT22;8431;52.458;9.998;2023-02-22T11:09:58;12.20;99.90
16635;DHT22;8431;52.458;9.998;2023-02-22T11:12:29;12.30;99.90
16635;DHT22;8431;52.458;9.998;2023-02-22T11:15:24;12.10;99.90
16635;DHT22;8431;52.458;9.998;2023-02-22T11:17:54;12.00;99.90
16635;DHT22;8431;52.458;9.998;2023-02-22T11:20:23;12.00;99.90
16635;DHT22;8431;52.458;9.998;2023-02-22T11:22:51;12.10;99.90
16635;DHT22;8431;52.458;9.998;2023-02-22T11:25:22;12.10;99.90
16635;DHT22;8431;52.458;9.998;2023-02-22T11:27:51;12.00;99.90
16635;DHT22;8431;52.458;9.998;2023-02-22T11:30:28;12.10;99.90
16635;DHT22;8431;52.458;9.998;2023-02-22T11:32:58;12.10;99.90
16635;DHT22;8431;52.458;9.998;2023-02-22T11:35:33;12.20;99.90
16635;DHT22;8431;52.458;9.998;2023-02-22T11:38:15;12.20;99.90
16635;DHT22;8431;52.458;9.998;2023-02-22T11:40:43;12.30;99.90
16635;DHT22;8431;52.458;9.998;2023-02-22T11:43:15;12.40;99.90
16635;DHT22;8431;52.458;9.998;2023-02-22T11:45:59;12.40;99.90
16635;DHT22;8431;52.458;9.998;2023-02-22T11:48:30;12.50;99.90
16635;DHT22;8431;52.458;9.998;2023-02-22T11:51:10;12.40;99.90
16635;DHT22;8431;52.458;9.998;2023-02-22T11:54:00;12.50;99.90
16635;DHT22;8431;52.458;9.998;2023-02-22T11:56:36;12.50;99.90
16635;DHT22;8431;52.458;9.998;2023-02-22T11:59:13;12.60;99.90
16635;DHT22;8431;52.458;9.998;2023-02-22T12:01:48;12.70;99.90
16635;DHT22;8431;52.458;9.998;2023-02-22T12:07:34;12.90;99.90
16635;DHT22;8431;52.458;9.998;2023-02-22T12:10:18;13.00;99.90
16635;DHT22;8431;52.458;9.998;2023-02-22T12:12:57;13.10;99.90
16635;DHT22;8431;52.458;9.998;2023-02-22T12:15:30;13.20;99.90
16635;DHT22;8431;52.458;9.998;2023-02-22T12:18:08;13.20;99.90
16635;DHT22;8431;52.458;9.998;2023-02-22T12:20:42;13.20;99.90
16635;DHT22;8431;52.458;9.998;2023-02-22T12:23:16;13.20;99.90
16635;DHT22;8431;52.458;9.998;2023-02-22T12:25:54;13.20;99.90
16635;DHT22;8431;52.458;9.998;2023-02-22T12:28:29;13.20;99.90
16635;DHT22;8431;52.458;9.998;2023-02-22T12:31:14;13.20;99.90
16635;DHT22;8431;52.458;9.998;2023-02-22T12:33:51;13.10;99.90
16635;DHT22;8431;52.458;9.998;2023-02-22T12:36:24;13.10;99.90
16635;DHT22;8431;52.458;9.998;2023-02-22T12:38:57;13.10;99.90
16635;DHT22;8431;52.458;9.998;2023-02-22T12:41:32;13.20;99.90
16635;DHT22;8431;52.458;9.998;2023-02-22T12:44:03;13.20;99.90
16635;DHT22;8431;52.458;9.998;2023-02-22T12:46:36;13.30;99.90
16635;DHT22;8431;52.458;9.998;2023-02-22T12:49:11;13.40;99.90
16635;DHT22;8431;52.458;9.998;2023-02-22T12:51:44;13.40;99.90
16635;DHT22;8431;52.458;9.998;2023-02-22T12:54:20;13.40;99.90
16635;DHT22;8431;52.458;9.998;2023-02-22T12:56:52;13.40;99.90
16635;DHT22;8431;52.458;9.998;2023-02-22T12:59:24;13.30;99.90
16635;DHT22;8431;52.458;9.998;2023-02-22T13:01:59;13.40;99.90
16635;DHT22;8431;52.458;9.998;2023-02-22T13:04:27;13.40;99.90
16635;DHT22;8431;52.458;9.998;2023-02-22T13:07:07;13.50;99.90
16635;DHT22;8431;52.458;9.998;2023-02-22T13:12:52;13.50;99.90
16635;DHT22;8431;52.458;9.998;2023-02-22T13:15:48;13.60;99.90
16635;DHT22;8431;52.458;9.998;2023-02-22T13:18:24;13.60;99.90
16635;DHT22;8431;52.458;9.998;2023-02-22T13:21:00;13.50;99.90
16635;DHT22;8431;52.458;9.998;2023-02-22T13:23:36;13.50;99.90
16635;DHT22;8431;52.458;9.998;2023-02-22T13:26:10;13.60;99.90
16635;DHT22;8431;52.458;9.998;2023-02-22T13:28:44;13.60;99.90
16635;DHT22;8431;52.458;9.998;2023-02-22T13:31:29;13.70;99.90
16635;DHT22;8431;52.458;9.998;2023-02-22T13:34:11;13.70;99.90
16635;DHT22;8431;52.458;9.998;2023-02-22T13:37:00;13.80;99.90
16635;DHT22;8431;52.458;9.998;2023-02-22T13:40:01;13.80;99.90
16635;DHT22;8431;52.458;9.998;2023-02-22T13:42:49;13.80;99.90
16635;DHT22;8431;52.458;9.998;2023-02-22T13:45:47;13.90;99.90
16635;DHT22;8431;52.458;9.998;2023-02-22T13:48:36;13.90;99.90
16635;DHT22;8431;52.458;9.998;2023-02-22T13:51:14;13.90;99.90
16635;DHT22;8431;52.458;9.998;2023-02-22T13:53:55;14.00;99.90
16635;DHT22;8431;52.458;9.998;2023-02-22T13:56:24;14.10;99.90
16635;DHT22;8431;52.458;9.998;2023-02-22T13:58:54;14.10;99.90
16635;DHT22;8431;52.458;9.998;2023-02-22T14:01:39;14.10;99.90
16635;DHT22;8431;52.458;9.998;2023-02-22T14:04:37;14.10;99.90
16635;DHT22;8431;52.458;9.998;2023-02-22T14:10:45;14.00;99.90
16635;DHT22;8431;52.458;9.998;2023-02-22T14:13:14;14.00;99.90
16635;DHT22;8431;52.458;9.998;2023-02-22T14:16:23;14.00;99.90
16635;DHT22;8431;52.458;9.998;2023-02-22T14:19:01;14.00;99.90
16635;DHT22;8431;52.458;9.998;2023-02-22T14:21:31;14.00;99.90
16635;DHT22;8431;52.458;9.998;2023-02-22T14:24:06;13.90;99.90
16635;DHT22;8431;52.458;9.998;2023-02-22T14:26:38;13.90;99.90
16635;DHT22;8431;52.458;9.998;2023-02-22T14:29:15;13.90;99.90
16635;DHT22;8431;52.458;9.998;2023-02-22T14:32:00;13.90;99.90
16635;DHT22;8431;52.458;9.998;2023-02-22T14:34:40;13.90;99.90
16635;DHT22;8431;52.458;9.998;2023-02-22T14:37:13;13.90;99.90
16635;DHT22;8431;52.458;9.998;2023-02-22T14:39:44;13.80;99.90
16635;DHT22;8431;52.458;9.998;2023-02-22T14:42:16;13.80;99.90
16635;DHT22;8431;52.458;9.998;2023-02-22T14:44:51;13.80;99.90
16635;DHT22;8431;52.458;9.998;2023-02-22T14:47:24;13.80;99.90
16635;DHT22;8431;52.458;9.998;2023-02-22T14:49:57;13.70;99.90
16635;DHT22;8431;52.458;9.998;2023-02-22T14:52:30;13.70;99.90
16635;DHT22;8431;52.458;9.998;2023-02-22T14:55:05;13.70;99.90
16635;DHT22;8431;52.458;9.998;2023-02-22T14:57:45;13.60;99.90
16635;DHT22;8431;52.458;9.998;2023-02-22T15:00:17;13.60;99.90
16635;DHT22;8431;52.458;9.998;2023-02-22T15:02:56;13.50;99.90
16635;DHT22;8431;52.458;9.998;2023-02-22T15:05:25;13.50;99.90
16635;DHT22;8431;52.458;9.998;2023-02-22T15:07:57;13.50;99.90
16635;DHT22;8431;52.458;9.998;2023-02-22T15:10:28;13.40;99.90
16635;DHT22;8431;52.458;9.998;2023-02-22T15:13:02;13.40;99.90
16635;DHT22;8431;52.458;9.998;2023-02-22T15:15:38;13.30;99.90
16635;DHT22;8431;52.458;9.998;2023-02-22T15:18:18;13.30;99.90
16635;DHT22;8431;52.458;9.998;2023-02-22T15:20:46;13.30;99.90
16635;DHT22;8431;52.458;9.998;2023-02-22T15:23:21;13.20;99.90
16635;DHT22;8431;52.458;9.998;2023-02-22T15:25:51;13.20;99.90
16635;DHT22;8431;52.458;9.998;2023-02-22T15:28:22;13.20;99.90
16635;DHT22;8431;52.458;9.998;2023-02-22T15:30:50;13.10;99.90
16635;DHT22;8431;52.458;9.998;2023-02-22T15:33:18;13.10;99.90
16635;DHT22;8431;52.458;9.998;2023-02-22T15:35:55;13.00;99.90
16635;DHT22;8431;52.458;9.998;2023-02-22T15:38:27;13.00;99.90
16635;DHT22;8431;52.458;9.998;2023-02-22T15:40:59;13.00;99.90
16635;DHT22;8431;52.458;9.998;2023-02-22T15:43:28;12.90;99.90
16635;DHT22;8431;52.458;9.998;2023-02-22T15:45:58;12.80;99.90
16635;DHT22;8431;52.458;9.998;2023-02-22T15:48:26;12.70;99.90
16635;DHT22;8431;52.458;9.998;2023-02-22T15:51:15;12.70;99.90
16635;DHT22;8431;52.458;9.998;2023-02-22T15:53:45;12.60;99.90
16635;DHT22;8431;52.458;9.998;2023-02-22T15:56:15;12.60;99.90
16635;DHT22;8431;52.458;9.998;2023-02-22T15:58:57;12.50;99.90
16635;DHT22;8431;52.458;9.998;2023-02-22T16:01:37;12.40;99.90
16635;DHT22;8431;52.458;9.998;2023-02-22T16:04:04;12.30;99.90
16635;DHT22;8431;52.458;9.998;2023-02-22T16:06:34;12.20;99.90
16635;DHT22;8431;52.458;9.998;2023-02-22T16:09:07;12.10;99.90
16635;DHT22;8431;52.458;9.998;2023-02-22T16:11:38;11.90;99.90
16635;DHT22;8431;52.458;9.998;2023-02-22T16:14:25;11.80;99.90
16635;DHT22;8431;52.458;9.998;2023-02-22T16:17:11;11.70;99.90
16635;DHT22;8431;52.458;9.998;2023-02-22T16:19:49;11.60;99.90
16635;DHT22;8431;52.458;9.998;2023-02-22T16:22:48;11.50;99.90
16635;DHT22;8431;52.458;9.998;2023-02-22T16:25:24;11.40;99.90
16635;DHT22;8431;52.458;9.998;2023-02-22T16:27:54;11.30;99.90
16635;DHT22;8431;52.458;9.998;2023-02-22T16:30:29;11.20;99.90
16635;DHT22;8431;52.458;9.998;2023-02-22T16:32:58;11.10;99.90
16635;DHT22;8431;52.458;9.998;2023-02-22T16:35:26;11.00;99.90
16635;DHT22;8431;52.458;9.998;2023-02-22T16:37:56;10.90;99.90
16635;DHT22;8431;52.458;9.998;2023-02-22T16:40:27;10.80;99.90
16635;DHT22;8431;52.458;9.998;2023-02-22T16:43:00;10.60;99.90